createdAt,value
2019-03-13T00:00:53.062Z,10.64
2019-03-13T00:04:01.516Z,10.60
2019-03-13T00:06:54.071Z,10.47
2019-03-13T00:09:43.338Z,10.30
2019-03-13T00:12:33.526Z,9.78
2019-03-13T00:15:22.860Z,9.96
2019-03-13T00:18:12.671Z,9.83
2019-03-13T00:21:03.209Z,9.78
2019-03-13T00:23:52.580Z,9.56
2019-03-13T00:26:42.312Z,9.07
2019-03-13T00:29:31.781Z,8.78
2019-03-13T00:32:21.229Z,8.47
2019-03-13T00:34:51.864Z,8.33
2019-03-13T00:37:42.227Z,8.26
2019-03-13T00:40:31.707Z,8.20
2019-03-13T00:43:22.125Z,8.10
2019-03-13T00:46:04.783Z,7.93
2019-03-13T00:48:34.977Z,7.83
2019-03-13T00:51:27.088Z,7.73
2019-03-13T00:54:17.790Z,7.73
2019-03-13T00:57:07.322Z,6.92
2019-03-13T00:59:56.974Z,7.44
2019-03-13T01:02:46.699Z,7.31
2019-03-13T01:05:44.215Z,7.23
2019-03-13T01:08:25.934Z,7.19
2019-03-13T01:11:09.136Z,7.13
2019-03-13T01:16:35.697Z,7.00
2019-03-13T01:19:27.155Z,6.96
2019-03-13T01:21:57.855Z,6.92
2019-03-13T01:27:26.235Z,6.79
2019-03-13T01:29:56.900Z,6.82
2019-03-13T01:35:43.731Z,6.84
2019-03-13T01:38:33.144Z,6.74
2019-03-13T01:41:08.822Z,6.74
2019-03-13T01:43:59.267Z,6.67
2019-03-13T01:46:50.465Z,5.85
2019-03-13T01:49:32.165Z,6.58
2019-03-13T01:52:13.903Z,5.74
2019-03-13T01:54:56.980Z,6.60
2019-03-13T01:57:38.659Z,6.59
2019-03-13T02:00:18.924Z,6.58
2019-03-13T02:06:40.438Z,6.62
2019-03-13T02:09:12.398Z,6.53
2019-03-13T02:11:44.126Z,6.55
2019-03-13T02:14:27.485Z,6.54
2019-03-13T02:17:18.442Z,6.50
2019-03-13T02:23:26.848Z,6.51
2019-03-13T02:26:17.609Z,6.50
2019-03-13T02:29:07.040Z,6.42
2019-03-13T02:31:56.914Z,6.34
2019-03-13T02:34:55.319Z,6.26
2019-03-13T02:37:46.030Z,6.18
2019-03-13T02:40:35.364Z,6.18
2019-03-13T02:46:19.409Z,6.08
2019-03-13T02:51:47.073Z,6.03
2019-03-13T02:54:19.367Z,5.99
2019-03-13T02:56:49.602Z,5.97
2019-03-13T02:59:40.254Z,5.93
2019-03-13T03:02:29.497Z,5.89
2019-03-13T03:05:20.026Z,5.82
2019-03-13T03:07:53.255Z,5.75
2019-03-13T03:10:43.657Z,5.74
2019-03-13T03:13:33.626Z,5.75
2019-03-13T03:16:25.414Z,5.69
2019-03-13T03:19:15.909Z,5.66
2019-03-13T03:24:46.769Z,5.63
2019-03-13T03:27:36.485Z,5.47
2019-03-13T03:33:37.069Z,5.23
2019-03-13T03:36:26.763Z,5.29
2019-03-13T03:39:16.927Z,5.28
2019-03-13T03:45:05.683Z,5.39
2019-03-13T03:47:48.152Z,5.43
2019-03-13T03:50:30.337Z,5.46
2019-03-13T03:55:53.184Z,5.61
2019-03-13T03:58:42.361Z,5.50
2019-03-13T04:01:13.365Z,5.34
2019-03-13T04:04:03.989Z,5.28
2019-03-13T04:06:34.604Z,5.18
2019-03-13T04:09:28.644Z,5.11
2019-03-13T04:12:18.023Z,4.93
2019-03-13T04:15:08.166Z,4.98
2019-03-13T04:17:57.820Z,4.91
2019-03-13T04:20:48.294Z,4.90
2019-03-13T04:23:38.269Z,4.89
2019-03-13T04:26:27.889Z,4.94
2019-03-13T04:29:17.225Z,4.89
2019-03-13T04:32:08.213Z,4.80
2019-03-13T04:34:57.732Z,4.87
2019-03-13T04:37:46.969Z,4.79
2019-03-13T04:40:36.849Z,4.78
2019-03-13T04:43:28.121Z,4.84
2019-03-13T04:46:17.664Z,4.89
2019-03-13T04:49:09.078Z,4.80
2019-03-13T04:51:50.548Z,4.78
2019-03-13T04:54:32.047Z,4.77
2019-03-13T04:59:41.764Z,4.80
2019-03-13T05:02:31.042Z,4.97
2019-03-13T05:05:39.249Z,4.92
2019-03-13T05:08:44.601Z,5.06
2019-03-13T05:11:24.399Z,5.11
2019-03-13T05:14:14.596Z,5.19
2019-03-13T05:17:03.874Z,5.17
2019-03-13T05:19:45.283Z,5.24
2019-03-13T05:22:15.756Z,5.21
2019-03-13T05:25:05.621Z,5.22
2019-03-13T05:27:35.762Z,5.33
2019-03-13T05:30:24.990Z,5.22
2019-03-13T05:32:55.523Z,5.19
2019-03-13T05:35:45.015Z,5.17
2019-03-13T05:38:15.240Z,5.17
2019-03-13T05:40:46.680Z,5.07
2019-03-13T05:43:17.136Z,5.06
2019-03-13T05:45:47.594Z,5.00
2019-03-13T05:48:17.912Z,4.95
2019-03-13T05:50:59.546Z,4.88
2019-03-13T05:53:41.158Z,4.84
2019-03-13T05:56:11.678Z,4.87
2019-03-13T05:59:02.907Z,4.91
2019-03-13T06:01:52.421Z,4.87
2019-03-13T06:04:22.677Z,4.93
2019-03-13T06:07:12.199Z,4.87
2019-03-13T06:10:01.636Z,4.82
2019-03-13T06:12:52.324Z,4.80
2019-03-13T06:15:22.600Z,4.78
2019-03-13T06:17:52.756Z,4.79
2019-03-13T06:20:22.936Z,4.82
2019-03-13T06:23:12.512Z,4.84
2019-03-13T06:26:01.780Z,4.90
2019-03-13T06:28:32.342Z,4.98
2019-03-13T06:31:02.533Z,5.08
2019-03-13T06:33:51.950Z,5.13
2019-03-13T06:36:22.103Z,5.19
2019-03-13T06:39:11.743Z,5.24
2019-03-13T06:41:42.065Z,4.87
2019-03-13T06:44:12.647Z,5.41
2019-03-13T06:47:07.533Z,5.40
2019-03-13T06:49:58.538Z,5.46
2019-03-13T06:55:12.058Z,5.54
2019-03-13T06:57:42.401Z,5.23
2019-03-13T07:00:50.793Z,4.90
2019-03-13T07:03:39.930Z,4.67
2019-03-13T07:06:27.820Z,4.54
2019-03-13T07:09:17.132Z,4.57
2019-03-13T07:12:28.342Z,4.68
2019-03-13T07:15:39.483Z,4.85
2019-03-13T07:18:34.414Z,5.07
2019-03-13T07:21:23.758Z,5.36
2019-03-13T07:24:12.902Z,5.65
2019-03-13T07:26:47.800Z,5.90
2019-03-13T07:29:30.701Z,6.09
2019-03-13T07:32:22.908Z,6.31
2019-03-13T07:35:34.211Z,6.84
2019-03-13T07:38:23.276Z,7.68
2019-03-13T07:41:00.156Z,8.18
2019-03-13T07:43:49.233Z,7.89
2019-03-13T07:46:38.628Z,7.34
2019-03-13T07:49:27.680Z,7.25
2019-03-13T07:52:16.885Z,6.98
2019-03-13T07:55:06.582Z,7.51
2019-03-13T07:57:57.074Z,8.19
2019-03-13T08:03:49.238Z,8.76
2019-03-13T08:06:38.258Z,9.43
2019-03-13T08:09:46.720Z,9.81
2019-03-13T08:12:55.076Z,10.69
2019-03-13T08:15:59.822Z,10.31
2019-03-13T08:18:50.614Z,9.93
2019-03-13T08:21:48.564Z,9.27
2019-03-13T08:24:57.655Z,10.06
2019-03-13T08:28:07.167Z,10.33
2019-03-13T08:30:56.583Z,8.02
2019-03-13T08:33:46.020Z,8.90
2019-03-13T08:36:23.488Z,8.69
2019-03-13T08:39:12.645Z,9.70
2019-03-13T08:41:58.701Z,9.36
2019-03-13T08:45:15.573Z,8.20
2019-03-13T08:48:04.702Z,7.99
2019-03-13T08:50:51.208Z,8.01
2019-03-13T08:53:59.347Z,7.77
2019-03-13T08:57:07.766Z,7.76
2019-03-13T09:00:15.818Z,7.54
2019-03-13T09:03:24.468Z,7.51
2019-03-13T09:06:11.947Z,7.77
2019-03-13T09:11:55.019Z,8.52
2019-03-13T09:14:43.904Z,8.31
2019-03-13T09:17:27.298Z,7.91
2019-03-13T09:20:19.577Z,8.77
2019-03-13T09:23:18.337Z,9.74
2019-03-13T09:26:07.368Z,9.52
2019-03-13T09:29:15.507Z,9.76
2019-03-13T09:32:23.616Z,11.15
2019-03-13T09:35:31.724Z,11.54
2019-03-13T09:38:40.416Z,12.19
2019-03-13T09:41:32.182Z,12.43
2019-03-13T09:44:21.285Z,12.17
2019-03-13T09:47:29.501Z,12.70
2019-03-13T09:50:18.578Z,12.39
2019-03-13T09:53:08.434Z,11.01
2019-03-13T09:56:16.585Z,11.92
2019-03-13T09:59:17.353Z,11.85
2019-03-13T10:02:17.349Z,9.42
2019-03-13T10:05:25.558Z,9.49
2019-03-13T10:08:33.656Z,9.51
2019-03-13T10:11:43.879Z,9.96
2019-03-13T10:14:51.995Z,10.65
2019-03-13T10:18:00.384Z,10.68
2019-03-13T10:21:08.504Z,10.18
2019-03-13T10:24:16.907Z,9.23
2019-03-13T10:27:25.024Z,8.99
2019-03-13T10:30:04.267Z,9.53
2019-03-13T10:33:12.752Z,9.60
2019-03-13T10:36:20.807Z,9.39
2019-03-13T10:39:10.276Z,9.31
2019-03-13T10:42:10.403Z,9.16
2019-03-13T10:45:18.801Z,9.15
2019-03-13T10:48:26.890Z,9.08
2019-03-13T10:51:16.360Z,9.70
2019-03-13T10:54:24.513Z,10.14
2019-03-13T10:57:24.712Z,9.82
2019-03-13T11:00:25.287Z,9.82
2019-03-13T11:03:14.363Z,9.82
2019-03-13T11:06:22.761Z,10.02
2019-03-13T11:09:28.667Z,10.00
2019-03-13T11:12:37.433Z,9.38
2019-03-13T11:15:27.143Z,9.36
2019-03-13T11:18:26.464Z,9.22
2019-03-13T11:21:15.539Z,9.35
2019-03-13T11:24:24.207Z,9.23
2019-03-13T11:27:13.578Z,8.96
2019-03-13T11:30:24.043Z,8.71
2019-03-13T11:33:51.164Z,8.57
2019-03-13T11:36:50.331Z,8.38
2019-03-13T11:39:39.481Z,8.38
2019-03-13T11:42:48.683Z,8.37
2019-03-13T11:45:37.780Z,8.44
2019-03-13T11:48:44.957Z,8.19
2019-03-13T11:51:53.294Z,8.29
2019-03-13T11:55:01.488Z,8.30
2019-03-13T11:58:09.622Z,8.54
2019-03-13T12:01:17.790Z,8.47
2019-03-13T12:04:25.982Z,8.39
2019-03-13T12:07:35.185Z,8.18
2019-03-13T12:10:25.362Z,8.28
2019-03-13T12:13:22.624Z,8.47
2019-03-13T12:15:58.600Z,8.57
2019-03-13T12:19:06.708Z,8.96
2019-03-13T12:21:57.818Z,9.30
2019-03-13T12:28:06.237Z,9.41
2019-03-13T12:30:45.134Z,8.91
2019-03-13T12:33:37.024Z,8.76
2019-03-13T12:36:29.802Z,8.82
2019-03-13T12:39:19.031Z,8.70
2019-03-13T12:44:44.929Z,8.98
2019-03-13T12:47:45.955Z,9.25
2019-03-13T12:59:16.693Z,9.51
2019-03-13T13:02:09.011Z,9.54
2019-03-13T13:05:04.743Z,9.45
2019-03-13T13:07:53.896Z,9.03
2019-03-13T13:11:03.255Z,8.77
2019-03-13T13:13:52.342Z,7.87
2019-03-13T13:17:00.501Z,7.04
2019-03-13T13:19:50.309Z,6.54
2019-03-13T13:22:40.236Z,5.95
2019-03-13T13:25:10.709Z,5.55
2019-03-13T13:28:01.261Z,5.74
2019-03-13T13:30:51.210Z,6.27
2019-03-13T13:33:40.933Z,6.39
2019-03-13T13:36:11.698Z,6.07
2019-03-13T13:38:42.195Z,9.06
2019-03-13T13:41:24.442Z,10.39
2019-03-13T13:43:54.830Z,9.93
2019-03-13T13:46:44.783Z,9.31
2019-03-13T13:49:35.672Z,8.98
2019-03-13T13:52:27.556Z,9.12
2019-03-13T14:01:16.163Z,7.59
2019-03-13T14:03:47.878Z,7.59
2019-03-13T14:06:19.956Z,7.98
2019-03-13T14:08:52.147Z,8.21
2019-03-13T14:11:22.382Z,8.04
2019-03-13T14:14:11.801Z,7.86
2019-03-13T14:16:41.950Z,7.91
2019-03-13T14:19:31.218Z,7.97
2019-03-13T14:22:22.143Z,8.32
2019-03-13T14:24:52.277Z,8.92
2019-03-13T14:27:41.820Z,9.19
2019-03-13T14:33:27.755Z,9.91
2019-03-13T14:35:58.450Z,11.81
2019-03-13T14:38:29.803Z,11.14
2019-03-13T14:41:01.775Z,9.84
2019-03-13T14:43:32.454Z,10.30
2019-03-13T14:46:03.241Z,10.04
2019-03-13T14:48:52.945Z,9.78
2019-03-13T14:51:42.429Z,9.77
2019-03-13T14:54:12.838Z,10.53
2019-03-13T14:56:43.415Z,9.90
2019-03-13T14:59:33.456Z,9.61
2019-03-13T15:02:22.674Z,9.52
2019-03-13T15:05:12.784Z,9.37
2019-03-13T15:07:46.530Z,9.20
2019-03-13T15:10:36.556Z,9.02
2019-03-13T15:15:46.901Z,8.78
2019-03-13T15:18:36.563Z,8.77
2019-03-13T15:21:25.918Z,8.93
2019-03-13T15:23:59.627Z,9.19
2019-03-13T15:26:48.858Z,9.14
2019-03-13T15:29:38.401Z,9.30
2019-03-13T15:32:20.503Z,9.28
2019-03-13T15:35:01.884Z,9.13
2019-03-13T15:37:44.778Z,8.87
2019-03-13T15:40:26.225Z,9.24
2019-03-13T15:43:10.237Z,10.12
2019-03-13T15:45:52.008Z,9.91
2019-03-13T15:48:22.909Z,9.41
2019-03-13T15:54:08.820Z,9.32
2019-03-13T15:56:58.130Z,9.03
2019-03-13T16:00:06.675Z,8.78
2019-03-13T16:02:56.342Z,8.64
2019-03-13T16:05:28.741Z,8.55
2019-03-13T16:08:18.378Z,8.36
2019-03-13T16:11:08.184Z,7.43
2019-03-13T16:13:38.358Z,8.28
2019-03-13T16:16:27.872Z,8.26
2019-03-13T16:19:17.067Z,8.08
2019-03-13T16:22:07.569Z,8.03
2019-03-13T16:24:56.901Z,8.02
2019-03-13T16:27:46.105Z,8.05
2019-03-13T16:30:40.477Z,8.08
2019-03-13T16:33:10.736Z,8.04
2019-03-13T16:35:41.151Z,8.07
2019-03-13T16:38:11.345Z,8.03
2019-03-13T16:40:41.561Z,8.02
2019-03-13T16:43:23.079Z,8.02
2019-03-13T16:45:53.350Z,8.07
2019-03-13T16:48:42.571Z,7.96
2019-03-13T16:51:31.934Z,7.98
2019-03-13T16:54:22.950Z,7.92
2019-03-13T16:56:53.353Z,7.85
2019-03-13T17:00:00.050Z,7.78
2019-03-13T17:02:36.474Z,7.73
2019-03-13T17:08:03.372Z,6.90
2019-03-13T17:10:44.742Z,7.66
2019-03-13T17:13:26.291Z,7.61
2019-03-13T17:16:08.057Z,7.59
2019-03-13T17:18:51.685Z,7.64
2019-03-13T17:21:33.649Z,7.57
2019-03-13T17:24:15.624Z,6.84
2019-03-13T17:26:46.163Z,7.51
2019-03-13T17:29:16.873Z,7.46
2019-03-13T17:32:07.353Z,7.44
2019-03-13T17:34:40.794Z,7.31
2019-03-13T17:37:12.523Z,7.32
2019-03-13T17:40:02.267Z,7.32
2019-03-13T17:42:36.728Z,7.34
2019-03-13T17:45:08.771Z,7.33
2019-03-13T17:47:58.296Z,7.31
2019-03-13T17:50:49.285Z,7.30
2019-03-13T17:53:41.085Z,7.32
2019-03-13T17:56:12.948Z,7.36
2019-03-13T17:59:04.356Z,7.34
2019-03-13T18:02:12.433Z,7.34
2019-03-13T18:05:02.061Z,7.35
2019-03-13T18:07:46.109Z,7.36
2019-03-13T18:10:27.523Z,7.31
2019-03-13T18:13:08.919Z,7.30
2019-03-13T18:15:51.509Z,7.22
2019-03-13T18:18:32.715Z,7.20
2019-03-13T18:21:02.961Z,7.10
2019-03-13T18:23:52.186Z,7.08
2019-03-13T18:26:22.421Z,6.23
2019-03-13T18:28:52.620Z,6.96
2019-03-13T18:31:41.859Z,6.93
2019-03-13T18:34:12.063Z,6.89
2019-03-13T18:37:01.591Z,6.90
2019-03-13T18:39:31.760Z,6.91
2019-03-13T18:42:20.954Z,6.85
2019-03-13T18:45:04.152Z,6.75
2019-03-13T18:47:34.508Z,6.59
2019-03-13T18:50:23.777Z,6.51
2019-03-13T18:53:13.139Z,6.48
2019-03-13T18:56:02.780Z,6.32
2019-03-13T18:58:35.056Z,6.22
2019-03-13T19:01:08.305Z,6.14
2019-03-13T19:03:59.158Z,6.07
2019-03-13T19:06:50.063Z,6.01
2019-03-13T19:09:22.878Z,5.97
2019-03-13T19:11:53.192Z,5.93
2019-03-13T19:14:24.960Z,5.80
2019-03-13T19:17:14.355Z,5.70
2019-03-13T19:20:05.420Z,5.60
2019-03-13T19:22:37.239Z,5.49
2019-03-13T19:25:09.048Z,5.47
2019-03-13T19:28:00.186Z,5.38
2019-03-13T19:33:31.429Z,5.29
2019-03-13T19:36:02.451Z,5.25
2019-03-13T19:38:54.026Z,5.22
2019-03-13T19:41:33.350Z,5.22
2019-03-13T19:44:07.138Z,5.22
2019-03-13T19:46:56.856Z,5.23
2019-03-13T19:49:48.678Z,5.25
2019-03-13T19:52:39.314Z,5.25
2019-03-13T19:55:28.688Z,5.27
2019-03-13T19:57:59.565Z,5.26
2019-03-13T20:00:29.924Z,5.30
2019-03-13T20:03:01.050Z,5.26
2019-03-13T20:05:44.173Z,5.25
2019-03-13T20:08:03.516Z,5.25
2019-03-13T20:10:44.834Z,5.27
2019-03-13T20:13:28.174Z,5.33
2019-03-13T20:16:08.252Z,5.39
2019-03-13T20:18:38.830Z,5.30
2019-03-13T20:21:31.133Z,5.32
2019-03-13T20:24:23.035Z,5.28
2019-03-13T20:27:14.684Z,5.31
2019-03-13T20:30:05.485Z,5.03
2019-03-13T20:32:35.846Z,5.20
2019-03-13T20:35:07.285Z,5.18
2019-03-13T20:37:40.956Z,5.27
2019-03-13T20:40:39.830Z,5.31
2019-03-13T20:43:29.245Z,5.34
2019-03-13T20:46:20.746Z,5.45
2019-03-13T20:51:28.375Z,5.55
2019-03-13T20:56:36.716Z,5.67
2019-03-13T21:01:45.660Z,5.70
2019-03-13T21:04:35.200Z,5.69
2019-03-13T21:07:06.328Z,5.65
2019-03-13T21:12:44.153Z,5.59
2019-03-13T21:15:33.395Z,5.68
2019-03-13T21:18:06.350Z,5.55
2019-03-13T21:20:56.150Z,5.44
2019-03-13T21:23:28.883Z,5.35
2019-03-13T21:26:00.097Z,5.32
2019-03-13T21:28:52.023Z,5.19
2019-03-13T21:31:43.217Z,5.19
2019-03-13T21:34:33.209Z,5.11
2019-03-13T21:37:24.402Z,5.02
2019-03-13T21:39:54.750Z,4.89
2019-03-13T21:43:04.275Z,4.75
2019-03-13T21:45:46.839Z,4.66
2019-03-13T21:48:30.636Z,4.50
2019-03-13T21:51:12.981Z,4.45
2019-03-13T21:53:54.692Z,4.40
2019-03-13T21:56:26.336Z,4.41
2019-03-13T21:59:15.550Z,4.47
2019-03-13T22:05:24.994Z,4.46
2019-03-13T22:08:06.078Z,4.48
2019-03-13T22:10:55.624Z,4.45
2019-03-13T22:13:37.598Z,4.54
2019-03-13T22:16:08.654Z,4.60
2019-03-13T22:18:58.181Z,4.55
2019-03-13T22:21:47.376Z,4.58
2019-03-13T22:31:02.947Z,4.63
2019-03-13T22:33:53.030Z,4.60
2019-03-13T22:36:42.266Z,4.59
2019-03-13T22:39:31.696Z,4.60
2019-03-13T22:42:21.565Z,3.79
2019-03-13T22:45:13.470Z,4.60
2019-03-13T22:48:03.349Z,4.61
2019-03-13T22:50:52.929Z,4.65
2019-03-13T22:53:42.174Z,4.58
2019-03-13T22:56:12.304Z,3.74
2019-03-13T22:59:01.667Z,4.61
2019-03-13T23:01:31.956Z,4.66
2019-03-13T23:04:08.527Z,4.70
2019-03-13T23:06:57.751Z,4.74
2019-03-13T23:09:50.853Z,4.71
2019-03-13T23:12:59.169Z,4.78
2019-03-13T23:15:39.470Z,4.77
2019-03-13T23:18:29.210Z,4.81
2019-03-13T23:20:59.501Z,4.82
2019-03-13T23:23:29.820Z,4.90
2019-03-13T23:26:19.220Z,4.94
2019-03-13T23:29:02.177Z,4.91
2019-03-13T23:31:43.387Z,4.93
2019-03-13T23:37:05.334Z,4.97
2019-03-13T23:42:32.989Z,5.16
2019-03-13T23:47:56.232Z,5.15
2019-03-13T23:50:45.734Z,5.14
2019-03-13T23:53:34.929Z,5.20
2019-03-13T23:56:05.157Z,5.25
2019-03-13T23:58:54.419Z,5.29
